createdAt,value
2017-10-27T00:00:13.733Z,99.90
2017-10-27T00:02:41.395Z,99.90
2017-10-27T00:05:08.966Z,99.90
2017-10-27T00:07:36.607Z,99.90
2017-10-27T00:10:04.205Z,99.90
2017-10-27T00:12:32.226Z,99.90
2017-10-27T00:15:00.574Z,99.90
2017-10-27T00:17:28.152Z,99.90
2017-10-27T00:19:56.522Z,99.90
2017-10-27T00:22:24.090Z,99.90
2017-10-27T00:24:51.833Z,99.90
2017-10-27T00:27:19.416Z,99.90
2017-10-27T00:29:48.051Z,99.90
2017-10-27T00:32:15.666Z,99.90
2017-10-27T00:34:44.010Z,99.90
2017-10-27T00:37:11.657Z,99.90
2017-10-27T00:39:39.222Z,99.90
2017-10-27T00:42:06.817Z,99.90
2017-10-27T00:44:35.148Z,99.90
2017-10-27T00:47:02.764Z,99.90
2017-10-27T00:49:31.101Z,99.90
2017-10-27T00:51:58.935Z,99.90
2017-10-27T00:54:26.505Z,99.90
2017-10-27T00:56:54.067Z,99.90
2017-10-27T00:59:21.658Z,99.90
2017-10-27T01:01:49.246Z,99.90
2017-10-27T01:04:17.639Z,99.90
2017-10-27T01:06:45.274Z,99.90
2017-10-27T01:09:13.626Z,99.90
2017-10-27T01:11:41.210Z,99.90
2017-10-27T01:14:09.852Z,99.90
2017-10-27T01:16:37.423Z,99.90
2017-10-27T01:19:04.990Z,99.90
2017-10-27T01:21:32.578Z,99.90
2017-10-27T01:24:00.910Z,99.90
2017-10-27T01:26:28.871Z,99.90
2017-10-27T01:28:56.454Z,99.90
2017-10-27T01:31:24.038Z,99.90
2017-10-27T01:33:53.110Z,99.90
2017-10-27T01:36:20.754Z,99.90
2017-10-27T01:38:48.313Z,99.90
2017-10-27T01:41:16.177Z,99.90
2017-10-27T01:43:43.790Z,99.90
2017-10-27T01:46:12.122Z,99.90
2017-10-27T01:48:39.732Z,99.90
2017-10-27T01:51:08.071Z,99.90
2017-10-27T01:53:35.707Z,99.90
2017-10-27T01:56:03.362Z,99.90
2017-10-27T01:58:31.295Z,99.90
2017-10-27T02:00:59.623Z,99.90
2017-10-27T02:03:27.262Z,99.90
2017-10-27T02:05:55.089Z,99.90
2017-10-27T02:08:23.472Z,99.90
2017-10-27T02:10:51.823Z,99.90
2017-10-27T02:13:19.483Z,99.90
2017-10-27T02:15:47.068Z,99.90
2017-10-27T02:18:15.491Z,99.90
2017-10-27T02:20:43.082Z,99.90
2017-10-27T02:23:10.646Z,99.90
2017-10-27T02:25:38.580Z,99.90
2017-10-27T02:28:06.184Z,99.90
2017-10-27T02:30:33.757Z,99.90
2017-10-27T02:33:02.106Z,99.90
2017-10-27T02:35:29.697Z,99.90
2017-10-27T02:37:58.074Z,99.90
2017-10-27T02:40:25.670Z,99.90
2017-10-27T02:42:53.515Z,99.90
2017-10-27T02:45:21.097Z,99.90
2017-10-27T02:47:48.722Z,99.90
2017-10-27T02:50:17.094Z,99.90
2017-10-27T02:52:45.435Z,99.90
2017-10-27T02:55:13.046Z,99.90
2017-10-27T02:57:40.669Z,99.90
2017-10-27T03:00:08.253Z,99.90
2017-10-27T03:02:36.594Z,99.90
2017-10-27T03:05:04.189Z,99.90
2017-10-27T03:07:32.523Z,99.90
2017-10-27T03:10:00.675Z,99.90
2017-10-27T03:12:28.246Z,99.90
2017-10-27T03:14:55.829Z,99.90
2017-10-27T03:17:23.464Z,99.90
2017-10-27T03:19:51.037Z,99.90
2017-10-27T03:22:19.397Z,99.90
2017-10-27T03:24:46.998Z,99.90
2017-10-27T03:27:15.042Z,99.90
2017-10-27T03:29:42.855Z,99.90
2017-10-27T03:32:11.193Z,99.90
2017-10-27T03:34:39.574Z,99.90
2017-10-27T03:37:07.142Z,99.90
2017-10-27T03:39:34.818Z,99.90
2017-10-27T03:42:03.154Z,99.90
2017-10-27T03:44:30.746Z,99.90
2017-10-27T03:46:58.330Z,99.90
2017-10-27T03:49:26.686Z,99.90
2017-10-27T03:51:54.258Z,99.90
2017-10-27T03:54:23.013Z,99.90
2017-10-27T03:56:50.579Z,99.90
2017-10-27T03:59:18.143Z,99.90
2017-10-27T04:01:45.758Z,99.90
2017-10-27T04:04:13.350Z,99.90
2017-10-27T04:06:40.964Z,99.90
2017-10-27T04:09:08.822Z,99.90
2017-10-27T04:11:37.553Z,99.90
2017-10-27T04:14:05.125Z,99.90
2017-10-27T04:16:32.698Z,99.90
2017-10-27T04:19:00.317Z,99.90
2017-10-27T04:21:27.894Z,99.90
2017-10-27T04:23:55.499Z,99.90
2017-10-27T04:26:23.843Z,99.90
2017-10-27T04:28:51.612Z,99.90
2017-10-27T04:31:19.178Z,99.90
2017-10-27T04:33:47.130Z,99.90
2017-10-27T04:36:14.719Z,99.90
2017-10-27T04:38:43.047Z,99.90
2017-10-27T04:41:10.657Z,99.90
2017-10-27T04:43:38.998Z,99.90
2017-10-27T04:46:07.400Z,99.90
2017-10-27T04:48:35.028Z,99.90
2017-10-27T04:51:02.891Z,99.90
2017-10-27T04:53:30.503Z,99.90
2017-10-27T04:55:59.121Z,99.90
2017-10-27T04:58:26.694Z,99.90
2017-10-27T05:00:54.270Z,99.90
2017-10-27T05:03:21.860Z,99.90
2017-10-27T05:05:50.202Z,99.90
2017-10-27T05:08:17.822Z,99.90
2017-10-27T05:10:45.594Z,99.90
2017-10-27T05:13:13.486Z,99.90
2017-10-27T05:15:41.062Z,99.90
2017-10-27T05:18:14.670Z,99.90
2017-10-27T05:20:47.769Z,99.90
2017-10-27T05:23:21.338Z,99.90
2017-10-27T05:25:48.918Z,99.90
2017-10-27T05:28:16.512Z,99.90
2017-10-27T05:30:44.125Z,99.90
2017-10-27T05:33:11.711Z,99.90
2017-10-27T05:35:40.116Z,99.90
2017-10-27T05:38:07.693Z,99.90
2017-10-27T05:40:35.839Z,99.90
2017-10-27T05:43:04.169Z,99.90
2017-10-27T05:45:31.729Z,99.90
2017-10-27T05:47:59.349Z,99.90
2017-10-27T05:50:26.906Z,99.90
2017-10-27T05:52:54.506Z,99.90
2017-10-27T05:55:22.093Z,99.90
2017-10-27T05:57:50.029Z,99.90
2017-10-27T06:00:17.612Z,99.90
2017-10-27T06:02:45.228Z,99.90
2017-10-27T06:05:12.855Z,99.90
2017-10-27T06:07:41.172Z,99.90
2017-10-27T06:10:08.778Z,99.90
2017-10-27T06:12:36.375Z,99.90
2017-10-27T06:15:04.081Z,99.90
2017-10-27T06:17:31.665Z,99.90
2017-10-27T06:19:59.265Z,99.90
2017-10-27T06:22:26.837Z,99.90
2017-10-27T06:24:54.795Z,99.90
2017-10-27T06:27:22.422Z,99.90
2017-10-27T06:29:50.795Z,99.90
2017-10-27T06:32:19.274Z,99.90
2017-10-27T06:34:47.625Z,99.90
2017-10-27T06:37:15.234Z,99.90
2017-10-27T06:39:42.827Z,99.90
2017-10-27T06:42:10.702Z,99.90
2017-10-27T06:44:38.286Z,99.90
2017-10-27T06:47:05.863Z,99.90
2017-10-27T06:49:34.306Z,99.90
2017-10-27T06:52:01.898Z,99.90
2017-10-27T06:54:29.544Z,99.90
2017-10-27T06:56:57.114Z,99.90
2017-10-27T06:59:25.053Z,99.90
2017-10-27T07:01:52.665Z,99.90
2017-10-27T07:04:21.036Z,99.90
2017-10-27T07:06:49.477Z,99.90
2017-10-27T07:09:17.047Z,99.90
2017-10-27T07:11:44.646Z,99.90
2017-10-27T07:14:12.228Z,99.90
2017-10-27T07:16:39.822Z,99.90
2017-10-27T07:19:07.398Z,99.90
2017-10-27T07:21:35.768Z,99.90
2017-10-27T07:24:03.370Z,99.90
2017-10-27T07:26:31.275Z,99.90
2017-10-27T07:29:01.185Z,99.90
2017-10-27T07:31:29.026Z,99.90
2017-10-27T07:33:56.610Z,99.90
2017-10-27T07:36:24.294Z,99.90
2017-10-27T07:38:51.891Z,99.90
2017-10-27T07:41:19.455Z,99.90
2017-10-27T07:43:47.358Z,99.90
2017-10-27T07:46:14.946Z,99.90
2017-10-27T07:48:42.519Z,99.90
2017-10-27T07:51:10.906Z,99.90
2017-10-27T07:53:39.353Z,99.90
2017-10-27T07:56:07.416Z,99.90
2017-10-27T07:58:34.983Z,99.90
2017-10-27T08:01:02.534Z,99.90
2017-10-27T08:03:30.134Z,99.90
2017-10-27T08:05:58.562Z,99.90
2017-10-27T08:08:26.151Z,99.90
2017-10-27T08:10:53.704Z,99.90
2017-10-27T08:13:21.555Z,99.90
2017-10-27T08:15:49.124Z,96.20
2017-10-27T08:18:16.712Z,94.10
2017-10-27T08:20:45.050Z,92.50
2017-10-27T08:23:12.625Z,92.50
2017-10-27T08:25:40.231Z,91.50
2017-10-27T08:28:08.583Z,76.90
2017-10-27T08:30:36.926Z,75.30
2017-10-27T08:33:04.489Z,75.50
2017-10-27T08:35:32.113Z,67.60
2017-10-27T08:37:59.925Z,57.10
2017-10-27T08:40:27.771Z,52.60
2017-10-27T08:42:55.343Z,51.10
2017-10-27T08:45:22.915Z,47.40
2017-10-27T08:47:50.489Z,45.70
2017-10-27T08:50:18.841Z,42.30
2017-10-27T08:52:46.433Z,42.20
2017-10-27T08:55:14.774Z,44.00
2017-10-27T08:57:42.624Z,44.00
2017-10-27T09:00:10.195Z,43.40
2017-10-27T09:02:37.739Z,46.10
2017-10-27T09:05:05.338Z,49.50
2017-10-27T09:07:32.914Z,48.70
2017-10-27T09:10:01.541Z,60.00
2017-10-27T09:12:29.170Z,60.00
2017-10-27T09:14:56.819Z,79.20
2017-10-27T09:17:25.194Z,91.90
2017-10-27T09:19:53.549Z,92.30
2017-10-27T09:22:21.189Z,92.20
2017-10-27T09:24:48.777Z,93.10
2017-10-27T09:27:17.470Z,91.00
2017-10-27T09:29:45.071Z,91.00
2017-10-27T09:32:12.658Z,91.30
2017-10-27T09:34:40.465Z,84.60
2017-10-27T09:37:08.800Z,60.40
2017-10-27T09:39:36.532Z,60.60
2017-10-27T09:42:04.176Z,53.90
2017-10-27T09:44:31.833Z,50.80
2017-10-27T09:46:59.394Z,44.00
2017-10-27T09:49:27.005Z,40.30
2017-10-27T09:51:54.597Z,41.50
2017-10-27T09:54:23.239Z,37.50
2017-10-27T09:56:50.812Z,37.40
2017-10-27T09:59:18.393Z,33.10
2017-10-27T10:01:46.757Z,33.90
2017-10-27T10:04:14.414Z,33.90
2017-10-27T10:06:42.018Z,33.80
2017-10-27T10:09:09.597Z,39.00
2017-10-27T10:11:37.449Z,39.80
2017-10-27T10:14:04.996Z,42.60
2017-10-27T10:16:33.390Z,50.60
2017-10-27T10:19:00.990Z,50.50
2017-10-27T10:21:28.632Z,57.10
2017-10-27T10:23:56.278Z,67.40
2017-10-27T10:26:23.849Z,63.70
2017-10-27T10:28:51.442Z,49.80
2017-10-27T10:31:18.994Z,38.60
2017-10-27T10:33:46.583Z,32.50
2017-10-27T10:36:14.922Z,28.60
2017-10-27T10:38:42.522Z,28.50
2017-10-27T10:41:10.866Z,28.10
2017-10-27T10:43:38.479Z,28.00
2017-10-27T10:46:06.066Z,27.60
2017-10-27T10:48:33.610Z,26.90
2017-10-27T10:51:01.270Z,27.10
2017-10-27T10:53:28.831Z,27.20
2017-10-27T10:55:56.725Z,28.90
2017-10-27T10:58:24.298Z,27.50
2017-10-27T11:00:51.877Z,26.30
2017-10-27T11:03:20.251Z,23.80
2017-10-27T11:05:47.817Z,23.60
2017-10-27T11:08:16.153Z,25.70
2017-10-27T11:10:43.763Z,25.60
2017-10-27T11:13:12.110Z,25.40
2017-10-27T11:18:20.315Z,23.60
2017-10-27T11:20:47.887Z,23.60
2017-10-27T11:23:15.496Z,23.90
2017-10-27T11:25:43.314Z,23.60
2017-10-27T11:28:11.178Z,24.10
2017-10-27T11:30:38.955Z,24.10
2017-10-27T11:33:06.533Z,24.10
2017-10-27T11:35:34.894Z,23.40
2017-10-27T11:38:02.454Z,23.40
2017-10-27T11:40:30.122Z,22.30
2017-10-27T11:42:58.525Z,25.50
2017-10-27T11:45:26.122Z,25.40
2017-10-27T11:47:53.710Z,29.50
2017-10-27T11:50:21.387Z,33.60
2017-10-27T11:52:48.981Z,34.80
2017-10-27T11:55:16.588Z,35.70
2017-10-27T11:57:44.190Z,34.30
2017-10-27T12:00:13.793Z,33.90
2017-10-27T12:02:41.373Z,31.20
2017-10-27T12:05:08.977Z,34.00
2017-10-27T12:07:36.549Z,36.20
2017-10-27T12:10:04.158Z,39.10
2017-10-27T12:12:31.744Z,40.30
2017-10-27T12:14:59.315Z,43.40
2017-10-27T12:17:28.633Z,45.40
2017-10-27T12:19:57.027Z,47.70
2017-10-27T12:22:24.647Z,47.70
2017-10-27T12:24:52.226Z,48.50
2017-10-27T12:27:20.886Z,47.40
2017-10-27T12:29:48.454Z,47.30
2017-10-27T12:32:16.146Z,44.60
2017-10-27T12:34:44.685Z,37.20
2017-10-27T12:37:12.294Z,36.50
2017-10-27T12:39:40.639Z,32.80
2017-10-27T12:42:08.247Z,32.70
2017-10-27T12:44:36.170Z,32.30
2017-10-27T12:47:03.777Z,35.70
2017-10-27T12:49:31.352Z,38.70
2017-10-27T12:51:59.290Z,42.30
2017-10-27T12:54:26.851Z,46.20
2017-10-27T12:56:54.782Z,50.50
2017-10-27T12:59:22.389Z,52.30
2017-10-27T13:01:49.996Z,55.20
2017-10-27T13:04:17.586Z,55.60
2017-10-27T13:06:45.926Z,58.00
2017-10-27T13:09:13.503Z,57.90
2017-10-27T13:11:41.227Z,52.40
2017-10-27T13:14:09.119Z,45.10
2017-10-27T13:16:36.678Z,40.90
2017-10-27T13:19:04.309Z,37.90
2017-10-27T13:21:31.947Z,36.20
2017-10-27T13:23:59.538Z,35.70
2017-10-27T13:26:27.384Z,35.30
2017-10-27T13:28:55.002Z,33.10
2017-10-27T13:31:22.571Z,33.00
2017-10-27T13:33:50.931Z,32.60
2017-10-27T13:36:18.524Z,32.50
2017-10-27T13:38:46.886Z,33.70
2017-10-27T13:41:15.262Z,37.30
2017-10-27T13:43:43.693Z,38.20
2017-10-27T13:46:11.298Z,38.10
2017-10-27T13:48:38.884Z,43.60
2017-10-27T13:51:06.543Z,44.00
2017-10-27T13:53:34.115Z,44.10
2017-10-27T13:56:01.708Z,42.70
2017-10-27T13:58:29.306Z,42.80
2017-10-27T14:00:57.713Z,39.60
2017-10-27T14:03:25.305Z,39.60
2017-10-27T14:05:52.930Z,39.50
2017-10-27T14:08:20.652Z,38.10
2017-10-27T14:10:48.426Z,37.30
2017-10-27T14:13:16.209Z,37.40
2017-10-27T14:15:43.850Z,39.00
2017-10-27T14:18:12.199Z,39.50
2017-10-27T14:20:39.906Z,39.50
2017-10-27T14:23:08.259Z,40.80
2017-10-27T14:25:35.869Z,40.80
2017-10-27T14:28:03.482Z,42.10
2017-10-27T14:30:31.299Z,41.80
2017-10-27T14:35:33.125Z,44.20
2017-10-27T14:38:01.556Z,47.10
2017-10-27T14:40:30.384Z,47.00
2017-10-27T14:45:32.396Z,46.50
2017-10-27T14:48:00.745Z,49.30
2017-10-27T14:50:29.207Z,49.10
2017-10-27T14:52:57.083Z,50.90
2017-10-27T14:55:24.700Z,50.50
2017-10-27T14:57:52.293Z,51.10
2017-10-27T15:00:19.926Z,51.90
2017-10-27T15:02:47.515Z,55.20
2017-10-27T15:05:15.149Z,57.00
2017-10-27T15:07:42.762Z,57.20
2017-10-27T15:10:14.062Z,55.70
2017-10-27T15:12:41.670Z,58.50
2017-10-27T15:15:10.354Z,57.60
2017-10-27T15:17:38.682Z,63.00
2017-10-27T15:20:06.265Z,62.90
2017-10-27T15:22:33.880Z,61.00
2017-10-27T15:25:01.454Z,61.10
2017-10-27T15:27:29.060Z,68.90
2017-10-27T15:29:56.645Z,65.30
2017-10-27T15:32:25.050Z,67.40
2017-10-27T15:34:52.773Z,67.50
2017-10-27T15:37:21.423Z,65.20
2017-10-27T15:39:49.012Z,65.20
2017-10-27T15:42:16.661Z,68.40
2017-10-27T15:44:44.327Z,72.20
2017-10-27T15:47:11.879Z,72.60
2017-10-27T15:49:39.481Z,70.00
2017-10-27T15:52:07.374Z,73.40
2017-10-27T15:54:34.986Z,77.10
2017-10-27T15:57:03.366Z,76.30
2017-10-27T15:59:31.266Z,76.10
2017-10-27T16:01:58.932Z,79.00
2017-10-27T16:04:26.582Z,79.60
2017-10-27T16:06:54.163Z,79.30
2017-10-27T16:09:21.798Z,81.70
2017-10-27T16:11:49.438Z,81.40
2017-10-27T16:14:17.923Z,82.90
2017-10-27T16:16:46.330Z,83.40
2017-10-27T16:19:14.555Z,83.40
2017-10-27T16:21:42.557Z,85.10
2017-10-27T16:24:10.898Z,85.60
2017-10-27T16:26:38.478Z,85.90
2017-10-27T16:29:06.863Z,89.20
2017-10-27T16:31:35.213Z,90.80
2017-10-27T16:34:02.807Z,90.80
2017-10-27T16:36:31.256Z,90.80
2017-10-27T16:38:58.859Z,90.80
2017-10-27T16:41:26.476Z,92.70
2017-10-27T16:43:55.295Z,92.90
2017-10-27T16:46:23.652Z,93.10
2017-10-27T16:48:51.248Z,93.10
2017-10-27T16:51:18.826Z,93.10
2017-10-27T16:53:46.427Z,93.60
2017-10-27T16:58:51.489Z,95.70
2017-10-27T17:01:19.116Z,95.80
2017-10-27T17:03:46.701Z,95.80
2017-10-27T17:06:14.635Z,96.80
2017-10-27T17:08:42.231Z,97.80
2017-10-27T17:11:09.860Z,97.20
2017-10-27T17:13:37.514Z,97.30
2017-10-27T17:16:05.125Z,97.00
2017-10-27T17:18:32.756Z,97.00
2017-10-27T17:21:00.368Z,97.30
2017-10-27T17:23:28.052Z,96.90
2017-10-27T17:25:55.630Z,97.80
2017-10-27T17:28:23.722Z,97.80
2017-10-27T17:30:51.318Z,98.10
2017-10-27T17:33:18.894Z,98.90
2017-10-27T17:35:47.606Z,99.00
2017-10-27T17:38:15.195Z,99.50
2017-10-27T17:40:43.954Z,99.90
2017-10-27T17:43:11.678Z,99.90
2017-10-27T17:45:39.307Z,99.90
2017-10-27T17:48:07.622Z,99.90
2017-10-27T17:50:35.575Z,99.90
2017-10-27T17:53:03.134Z,99.90
2017-10-27T17:55:30.717Z,99.90
2017-10-27T17:57:58.325Z,99.90
2017-10-27T18:00:25.911Z,99.90
2017-10-27T18:02:53.556Z,99.90
2017-10-27T18:05:21.972Z,99.90
2017-10-27T18:07:49.819Z,99.90
2017-10-27T18:10:17.449Z,99.90
2017-10-27T18:12:45.375Z,99.90
2017-10-27T18:15:12.992Z,99.90
2017-10-27T18:17:41.338Z,99.90
2017-10-27T18:20:08.964Z,99.90
2017-10-27T18:22:36.682Z,99.90
2017-10-27T18:25:05.046Z,99.90
2017-10-27T18:27:32.646Z,99.90
2017-10-27T18:30:00.284Z,99.90
2017-10-27T18:32:28.772Z,99.90
2017-10-27T18:34:57.428Z,99.90
2017-10-27T18:37:25.011Z,99.90
2017-10-27T18:39:53.365Z,99.90
2017-10-27T18:42:21.052Z,99.90
2017-10-27T18:44:48.683Z,99.90
2017-10-27T18:47:16.272Z,99.90
2017-10-27T18:49:44.733Z,99.90
2017-10-27T18:52:13.463Z,99.90
2017-10-27T18:54:41.035Z,99.90
2017-10-27T18:57:08.693Z,99.90
2017-10-27T18:59:36.399Z,99.90
2017-10-27T19:02:04.041Z,99.90
2017-10-27T19:04:32.501Z,99.90
2017-10-27T19:07:00.232Z,99.90
2017-10-27T19:09:31.546Z,99.90
2017-10-27T19:11:59.258Z,99.90
2017-10-27T19:14:26.873Z,99.90
2017-10-27T19:16:54.527Z,99.90
2017-10-27T19:19:22.148Z,99.90
2017-10-27T19:21:49.803Z,99.90
2017-10-27T19:24:17.407Z,99.90
2017-10-27T19:26:46.151Z,99.90
2017-10-27T19:29:13.752Z,99.90
2017-10-27T19:31:41.335Z,99.90
2017-10-27T19:34:08.960Z,99.90
2017-10-27T19:36:36.560Z,99.90
2017-10-27T19:39:05.100Z,99.90
2017-10-27T19:41:32.711Z,99.90
2017-10-27T19:44:00.350Z,99.90
2017-10-27T19:46:27.951Z,99.90
2017-10-27T19:48:55.582Z,99.90
2017-10-27T19:51:23.175Z,99.90
2017-10-27T19:53:51.106Z,99.90
2017-10-27T19:56:18.723Z,99.90
2017-10-27T19:58:46.461Z,99.90
2017-10-27T20:01:14.038Z,99.90
2017-10-27T20:03:42.608Z,99.90
2017-10-27T20:06:10.448Z,99.90
2017-10-27T20:08:38.836Z,99.90
2017-10-27T20:11:07.467Z,99.90
2017-10-27T20:13:35.081Z,99.90
2017-10-27T20:16:03.446Z,99.90
2017-10-27T20:18:31.837Z,99.90
2017-10-27T20:21:00.178Z,99.90
2017-10-27T20:23:27.807Z,99.90
2017-10-27T20:25:55.654Z,99.90
2017-10-27T20:28:23.337Z,99.90
2017-10-27T20:30:52.989Z,99.90
2017-10-27T20:33:20.702Z,99.90
2017-10-27T20:35:48.272Z,99.90
2017-10-27T20:38:16.134Z,99.90
2017-10-27T20:40:47.704Z,99.90
2017-10-27T20:43:15.643Z,99.90
2017-10-27T20:45:43.289Z,99.90
2017-10-27T20:48:10.877Z,99.90
2017-10-27T20:50:38.488Z,99.90
2017-10-27T20:53:06.874Z,99.90
2017-10-27T20:55:35.605Z,99.90
2017-10-27T20:58:03.252Z,99.90
2017-10-27T21:00:30.873Z,99.90
2017-10-27T21:02:58.554Z,99.90
2017-10-27T21:05:35.476Z,99.90
2017-10-27T21:08:03.836Z,99.90
2017-10-27T21:10:31.470Z,99.90
2017-10-27T21:12:59.139Z,99.90
2017-10-27T21:15:27.117Z,99.90
2017-10-27T21:17:54.825Z,99.90
2017-10-27T21:20:23.254Z,99.90
2017-10-27T21:22:51.378Z,99.90
2017-10-27T21:25:19.158Z,99.90
2017-10-27T21:27:47.525Z,99.90
2017-10-27T21:30:15.292Z,99.90
2017-10-27T21:32:42.928Z,99.90
2017-10-27T21:35:10.565Z,99.90
2017-10-27T21:37:38.237Z,99.90
2017-10-27T21:40:06.103Z,99.90
2017-10-27T21:42:33.749Z,99.90
2017-10-27T21:45:01.363Z,99.90
2017-10-27T21:47:28.994Z,99.90
2017-10-27T21:49:56.631Z,99.90
2017-10-27T21:52:24.505Z,99.90
2017-10-27T21:54:52.353Z,99.90
2017-10-27T21:57:20.287Z,99.90
2017-10-27T21:59:48.770Z,99.90
2017-10-27T22:02:17.233Z,99.90
2017-10-27T22:04:44.873Z,99.90
2017-10-27T22:07:12.463Z,99.90
2017-10-27T22:09:40.118Z,99.90
2017-10-27T22:12:07.756Z,99.90
2017-10-27T22:14:35.641Z,99.90
2017-10-27T22:17:03.227Z,99.90
2017-10-27T22:19:30.878Z,99.90
2017-10-27T22:21:58.506Z,99.90
2017-10-27T22:24:26.148Z,99.90
2017-10-27T22:26:53.793Z,99.90
2017-10-27T22:29:21.416Z,99.90
2017-10-27T22:31:49.052Z,99.90
2017-10-27T22:34:16.632Z,99.90
2017-10-27T22:36:45.006Z,99.90
2017-10-27T22:39:12.614Z,99.90
2017-10-27T22:41:40.660Z,99.90
2017-10-27T22:44:08.995Z,99.90
2017-10-27T22:46:36.581Z,99.90
2017-10-27T22:49:04.198Z,99.90
2017-10-27T22:51:31.786Z,99.90
2017-10-27T22:53:59.387Z,99.90
2017-10-27T22:56:27.133Z,99.90
2017-10-27T22:58:55.791Z,99.90
2017-10-27T23:01:23.390Z,99.90
2017-10-27T23:03:50.991Z,99.90
2017-10-27T23:06:18.599Z,99.90
2017-10-27T23:08:47.143Z,99.90
2017-10-27T23:11:14.753Z,99.90
2017-10-27T23:13:43.095Z,99.90
2017-10-27T23:16:10.978Z,99.90
2017-10-27T23:18:38.563Z,99.90
2017-10-27T23:21:06.147Z,99.90
2017-10-27T23:23:33.747Z,99.90
2017-10-27T23:26:01.339Z,99.90
2017-10-27T23:28:30.021Z,99.90
2017-10-27T23:30:57.607Z,99.90
2017-10-27T23:33:25.197Z,99.90
2017-10-27T23:35:52.795Z,99.90
2017-10-27T23:38:21.238Z,99.90
2017-10-27T23:40:48.817Z,99.90
2017-10-27T23:43:16.792Z,99.90
2017-10-27T23:45:44.385Z,99.90
2017-10-27T23:48:11.981Z,99.90
2017-10-27T23:50:39.611Z,99.90
2017-10-27T23:53:07.209Z,99.90
2017-10-27T23:55:35.591Z,99.90
2017-10-27T23:58:03.190Z,99.90
